sensor_id;sensor_type;location;lat;lon;timestamp;temperature;humidity
2571;DHT22;1295;51.130;6.732;2023-10-08T00:01:02;19.30;99.90
2571;DHT22;1295;51.130;6.732;2023-10-08T00:03:27;19.30;99.90
2571;DHT22;1295;51.130;6.732;2023-10-08T00:05:53;19.30;99.90
2571;DHT22;1295;51.130;6.732;2023-10-08T00:08:18;19.40;99.90
2571;DHT22;1295;51.130;6.732;2023-10-08T00:10:44;19.60;99.90
2571;DHT22;1295;51.130;6.732;2023-10-08T00:13:10;19.40;99.90
2571;DHT22;1295;51.130;6.732;2023-10-08T00:15:36;19.50;99.90
2571;DHT22;1295;51.130;6.732;2023-10-08T00:18:02;19.50;99.90
2571;DHT22;1295;51.130;6.732;2023-10-08T00:20:27;19.40;99.90
2571;DHT22;1295;51.130;6.732;2023-10-08T00:22:53;19.40;99.90
2571;DHT22;1295;51.130;6.732;2023-10-08T00:25:19;19.40;99.90
2571;DHT22;1295;51.130;6.732;2023-10-08T00:27:44;19.40;99.90
2571;DHT22;1295;51.130;6.732;2023-10-08T00:30:12;19.40;99.90
2571;DHT22;1295;51.130;6.732;2023-10-08T00:32:38;19.10;99.90
2571;DHT22;1295;51.130;6.732;2023-10-08T00:35:04;19.10;99.90
2571;DHT22;1295;51.130;6.732;2023-10-08T00:37:30;19.10;99.90
2571;DHT22;1295;51.130;6.732;2023-10-08T00:39:55;19.10;99.90
2571;DHT22;1295;51.130;6.732;2023-10-08T00:42:21;19.20;99.90
2571;DHT22;1295;51.130;6.732;2023-10-08T00:44:47;19.10;99.90
2571;DHT22;1295;51.130;6.732;2023-10-08T00:47:14;19.10;99.90
2571;DHT22;1295;51.130;6.732;2023-10-08T00:49:40;18.90;99.90
2571;DHT22;1295;51.130;6.732;2023-10-08T00:52:06;18.90;99.90
2571;DHT22;1295;51.130;6.732;2023-10-08T00:54:48;19.20;99.90
2571;DHT22;1295;51.130;6.732;2023-10-08T00:57:30;19.10;99.90
2571;DHT22;1295;51.130;6.732;2023-10-08T00:59:56;19.10;99.90
2571;DHT22;1295;51.130;6.732;2023-10-08T01:02:24;19.40;99.90
2571;DHT22;1295;51.130;6.732;2023-10-08T01:04:49;19.40;99.90
2571;DHT22;1295;51.130;6.732;2023-10-08T01:07:15;19.20;99.90
2571;DHT22;1295;51.130;6.732;2023-10-08T01:09:42;19.10;99.90
2571;DHT22;1295;51.130;6.732;2023-10-08T01:12:09;19.00;99.90
2571;DHT22;1295;51.130;6.732;2023-10-08T01:14:34;19.20;99.90
2571;DHT22;1295;51.130;6.732;2023-10-08T01:17:00;19.20;99.90
2571;DHT22;1295;51.130;6.732;2023-10-08T01:19:26;19.20;99.90
2571;DHT22;1295;51.130;6.732;2023-10-08T01:21:52;19.20;99.90
2571;DHT22;1295;51.130;6.732;2023-10-08T01:24:17;19.30;99.90
2571;DHT22;1295;51.130;6.732;2023-10-08T01:26:43;19.10;99.90
2571;DHT22;1295;51.130;6.732;2023-10-08T01:29:09;19.10;99.90
2571;DHT22;1295;51.130;6.732;2023-10-08T01:31:35;19.10;99.90
2571;DHT22;1295;51.130;6.732;2023-10-08T01:34:01;19.00;99.90
2571;DHT22;1295;51.130;6.732;2023-10-08T01:36:27;19.00;99.90
2571;DHT22;1295;51.130;6.732;2023-10-08T01:38:52;19.00;99.90
2571;DHT22;1295;51.130;6.732;2023-10-08T01:41:18;19.00;99.90
2571;DHT22;1295;51.130;6.732;2023-10-08T01:43:44;18.90;99.90
2571;DHT22;1295;51.130;6.732;2023-10-08T01:46:09;18.80;99.90
2571;DHT22;1295;51.130;6.732;2023-10-08T01:48:35;18.90;99.90
2571;DHT22;1295;51.130;6.732;2023-10-08T01:51:01;19.10;99.90
2571;DHT22;1295;51.130;6.732;2023-10-08T01:53:27;18.80;99.90
2571;DHT22;1295;51.130;6.732;2023-10-08T01:55:53;18.80;99.90
2571;DHT22;1295;51.130;6.732;2023-10-08T01:58:18;18.70;99.90
2571;DHT22;1295;51.130;6.732;2023-10-08T02:00:45;18.70;99.90
2571;DHT22;1295;51.130;6.732;2023-10-08T02:03:11;18.80;99.90
2571;DHT22;1295;51.130;6.732;2023-10-08T02:05:36;18.70;99.90
2571;DHT22;1295;51.130;6.732;2023-10-08T02:08:08;18.80;99.90
2571;DHT22;1295;51.130;6.732;2023-10-08T02:10:39;19.00;99.90
2571;DHT22;1295;51.130;6.732;2023-10-08T02:13:04;19.00;99.90
2571;DHT22;1295;51.130;6.732;2023-10-08T02:15:29;18.90;99.90
2571;DHT22;1295;51.130;6.732;2023-10-08T02:17:55;19.20;99.90
2571;DHT22;1295;51.130;6.732;2023-10-08T02:20:21;19.00;99.90
2571;DHT22;1295;51.130;6.732;2023-10-08T02:22:46;19.20;99.90
2571;DHT22;1295;51.130;6.732;2023-10-08T02:25:13;19.10;99.90
2571;DHT22;1295;51.130;6.732;2023-10-08T02:27:39;18.90;99.90
2571;DHT22;1295;51.130;6.732;2023-10-08T02:30:07;18.90;99.90
2571;DHT22;1295;51.130;6.732;2023-10-08T02:32:33;19.00;99.90
2571;DHT22;1295;51.130;6.732;2023-10-08T02:35:00;19.20;99.90
2571;DHT22;1295;51.130;6.732;2023-10-08T02:37:25;19.20;99.90
2571;DHT22;1295;51.130;6.732;2023-10-08T02:39:52;19.20;99.90
2571;DHT22;1295;51.130;6.732;2023-10-08T02:42:17;19.20;99.90
2571;DHT22;1295;51.130;6.732;2023-10-08T02:44:43;18.80;99.90
2571;DHT22;1295;51.130;6.732;2023-10-08T02:47:09;18.70;99.90
2571;DHT22;1295;51.130;6.732;2023-10-08T02:49:35;18.90;99.90
2571;DHT22;1295;51.130;6.732;2023-10-08T02:52:01;18.80;99.90
2571;DHT22;1295;51.130;6.732;2023-10-08T02:54:27;18.80;99.90
2571;DHT22;1295;51.130;6.732;2023-10-08T02:56:57;18.70;99.90
2571;DHT22;1295;51.130;6.732;2023-10-08T02:59:31;19.10;99.90
2571;DHT22;1295;51.130;6.732;2023-10-08T03:02:12;19.00;99.90
2571;DHT22;1295;51.130;6.732;2023-10-08T03:04:40;19.00;99.90
2571;DHT22;1295;51.130;6.732;2023-10-08T03:07:04;18.90;99.90
2571;DHT22;1295;51.130;6.732;2023-10-08T03:09:30;19.10;99.90
2571;DHT22;1295;51.130;6.732;2023-10-08T03:11:55;18.80;99.90
2571;DHT22;1295;51.130;6.732;2023-10-08T03:14:21;18.80;99.90
2571;DHT22;1295;51.130;6.732;2023-10-08T03:16:51;18.90;99.90
2571;DHT22;1295;51.130;6.732;2023-10-08T03:19:17;18.80;99.90
2571;DHT22;1295;51.130;6.732;2023-10-08T03:21:42;18.80;99.90
2571;DHT22;1295;51.130;6.732;2023-10-08T03:24:08;19.00;99.90
2571;DHT22;1295;51.130;6.732;2023-10-08T03:26:38;18.60;99.90
2571;DHT22;1295;51.130;6.732;2023-10-08T03:29:04;18.20;99.90
2571;DHT22;1295;51.130;6.732;2023-10-08T03:31:30;18.10;99.90
2571;DHT22;1295;51.130;6.732;2023-10-08T03:34:02;18.20;99.90
2571;DHT22;1295;51.130;6.732;2023-10-08T03:36:28;18.20;99.90
2571;DHT22;1295;51.130;6.732;2023-10-08T03:38:54;18.20;99.90
2571;DHT22;1295;51.130;6.732;2023-10-08T03:41:22;18.20;99.90
2571;DHT22;1295;51.130;6.732;2023-10-08T03:43:48;18.80;99.90
2571;DHT22;1295;51.130;6.732;2023-10-08T03:46:24;18.80;99.90
2571;DHT22;1295;51.130;6.732;2023-10-08T03:48:50;19.00;99.90
2571;DHT22;1295;51.130;6.732;2023-10-08T03:51:17;19.00;99.90
2571;DHT22;1295;51.130;6.732;2023-10-08T03:53:42;18.30;99.90
2571;DHT22;1295;51.130;6.732;2023-10-08T03:56:08;18.30;99.90
2571;DHT22;1295;51.130;6.732;2023-10-08T03:58:33;18.20;99.90
2571;DHT22;1295;51.130;6.732;2023-10-08T04:00:59;18.70;99.90
2571;DHT22;1295;51.130;6.732;2023-10-08T04:03:31;19.00;99.90
2571;DHT22;1295;51.130;6.732;2023-10-08T04:05:56;18.50;99.90
2571;DHT22;1295;51.130;6.732;2023-10-08T04:08:25;18.50;99.90
2571;DHT22;1295;51.130;6.732;2023-10-08T04:10:51;18.60;99.90
2571;DHT22;1295;51.130;6.732;2023-10-08T04:13:22;18.50;99.90
2571;DHT22;1295;51.130;6.732;2023-10-08T04:15:49;17.90;99.90
2571;DHT22;1295;51.130;6.732;2023-10-08T04:18:14;17.90;99.90
2571;DHT22;1295;51.130;6.732;2023-10-08T04:20:40;18.10;99.90
2571;DHT22;1295;51.130;6.732;2023-10-08T04:23:06;18.00;99.90
2571;DHT22;1295;51.130;6.732;2023-10-08T04:25:32;18.20;99.90
2571;DHT22;1295;51.130;6.732;2023-10-08T04:27:58;17.60;99.90
2571;DHT22;1295;51.130;6.732;2023-10-08T04:30:26;17.40;99.90
2571;DHT22;1295;51.130;6.732;2023-10-08T04:32:52;17.90;99.90
2571;DHT22;1295;51.130;6.732;2023-10-08T04:35:17;17.90;99.90
2571;DHT22;1295;51.130;6.732;2023-10-08T04:37:43;18.10;99.90
2571;DHT22;1295;51.130;6.732;2023-10-08T04:40:09;18.50;99.90
2571;DHT22;1295;51.130;6.732;2023-10-08T04:42:35;18.80;99.90
2571;DHT22;1295;51.130;6.732;2023-10-08T04:45:01;18.90;99.90
2571;DHT22;1295;51.130;6.732;2023-10-08T04:47:27;18.30;99.90
2571;DHT22;1295;51.130;6.732;2023-10-08T04:50:00;18.40;99.90
2571;DHT22;1295;51.130;6.732;2023-10-08T04:52:26;18.40;99.90
2571;DHT22;1295;51.130;6.732;2023-10-08T04:54:52;18.40;99.90
2571;DHT22;1295;51.130;6.732;2023-10-08T04:57:24;18.50;99.90
2571;DHT22;1295;51.130;6.732;2023-10-08T04:59:51;18.60;99.90
2571;DHT22;1295;51.130;6.732;2023-10-08T05:02:17;18.50;99.90
2571;DHT22;1295;51.130;6.732;2023-10-08T05:04:46;18.80;99.90
2571;DHT22;1295;51.130;6.732;2023-10-08T05:07:26;18.90;99.90
2571;DHT22;1295;51.130;6.732;2023-10-08T05:09:52;18.90;99.90
2571;DHT22;1295;51.130;6.732;2023-10-08T05:12:19;18.50;99.90
2571;DHT22;1295;51.130;6.732;2023-10-08T05:14:50;18.50;99.90
2571;DHT22;1295;51.130;6.732;2023-10-08T05:17:21;18.40;99.90
2571;DHT22;1295;51.130;6.732;2023-10-08T05:19:48;18.70;99.90
2571;DHT22;1295;51.130;6.732;2023-10-08T05:22:14;18.90;99.90
2571;DHT22;1295;51.130;6.732;2023-10-08T05:24:45;18.80;99.90
2571;DHT22;1295;51.130;6.732;2023-10-08T05:27:10;18.60;99.90
2571;DHT22;1295;51.130;6.732;2023-10-08T05:29:41;18.90;99.90
2571;DHT22;1295;51.130;6.732;2023-10-08T05:32:13;18.90;99.90
2571;DHT22;1295;51.130;6.732;2023-10-08T05:34:42;18.90;99.90
2571;DHT22;1295;51.130;6.732;2023-10-08T05:37:08;18.90;99.90
2571;DHT22;1295;51.130;6.732;2023-10-08T05:39:38;18.90;99.90
2571;DHT22;1295;51.130;6.732;2023-10-08T05:42:08;18.90;99.90
2571;DHT22;1295;51.130;6.732;2023-10-08T05:44:40;18.90;99.90
2571;DHT22;1295;51.130;6.732;2023-10-08T05:47:06;18.90;99.90
2571;DHT22;1295;51.130;6.732;2023-10-08T05:49:32;18.90;99.90
2571;DHT22;1295;51.130;6.732;2023-10-08T05:52:07;18.90;99.90
2571;DHT22;1295;51.130;6.732;2023-10-08T05:54:37;18.70;99.90
2571;DHT22;1295;51.130;6.732;2023-10-08T05:57:05;18.70;99.90
2571;DHT22;1295;51.130;6.732;2023-10-08T05:59:30;18.80;99.90
2571;DHT22;1295;51.130;6.732;2023-10-08T06:01:55;18.90;99.90
2571;DHT22;1295;51.130;6.732;2023-10-08T06:04:22;18.80;99.90
2571;DHT22;1295;51.130;6.732;2023-10-08T06:06:53;18.80;99.90
2571;DHT22;1295;51.130;6.732;2023-10-08T06:09:34;18.80;99.90
2571;DHT22;1295;51.130;6.732;2023-10-08T06:12:01;18.80;99.90
2571;DHT22;1295;51.130;6.732;2023-10-08T06:14:32;18.70;99.90
2571;DHT22;1295;51.130;6.732;2023-10-08T06:17:15;18.70;99.90
2571;DHT22;1295;51.130;6.732;2023-10-08T06:19:46;18.40;99.90
2571;DHT22;1295;51.130;6.732;2023-10-08T06:22:12;18.40;99.90
2571;DHT22;1295;51.130;6.732;2023-10-08T06:24:38;18.60;99.90
2571;DHT22;1295;51.130;6.732;2023-10-08T06:27:03;18.70;99.90
2571;DHT22;1295;51.130;6.732;2023-10-08T06:29:29;18.60;99.90
2571;DHT22;1295;51.130;6.732;2023-10-08T06:31:55;18.70;99.90
2571;DHT22;1295;51.130;6.732;2023-10-08T06:34:21;18.50;99.90
2571;DHT22;1295;51.130;6.732;2023-10-08T06:36:46;18.50;99.90
2571;DHT22;1295;51.130;6.732;2023-10-08T06:39:11;18.70;99.90
2571;DHT22;1295;51.130;6.732;2023-10-08T06:41:37;18.60;99.90
2571;DHT22;1295;51.130;6.732;2023-10-08T06:44:03;18.70;99.90
2571;DHT22;1295;51.130;6.732;2023-10-08T06:46:31;18.70;99.90
2571;DHT22;1295;51.130;6.732;2023-10-08T06:48:58;18.80;99.90
2571;DHT22;1295;51.130;6.732;2023-10-08T06:51:24;18.60;99.90
2571;DHT22;1295;51.130;6.732;2023-10-08T06:53:50;18.60;99.90
2571;DHT22;1295;51.130;6.732;2023-10-08T06:56:16;18.30;99.90
2571;DHT22;1295;51.130;6.732;2023-10-08T06:58:42;18.40;99.90
2571;DHT22;1295;51.130;6.732;2023-10-08T07:01:09;18.60;99.90
2571;DHT22;1295;51.130;6.732;2023-10-08T07:03:35;18.60;99.90
2571;DHT22;1295;51.130;6.732;2023-10-08T07:06:01;18.70;99.90
2571;DHT22;1295;51.130;6.732;2023-10-08T07:08:29;18.70;99.90
2571;DHT22;1295;51.130;6.732;2023-10-08T07:10:52;18.70;99.90
2571;DHT22;1295;51.130;6.732;2023-10-08T07:13:18;18.70;99.90
2571;DHT22;1295;51.130;6.732;2023-10-08T07:15:43;18.70;99.90
2571;DHT22;1295;51.130;6.732;2023-10-08T07:18:09;18.70;99.90
2571;DHT22;1295;51.130;6.732;2023-10-08T07:20:36;18.70;99.90
2571;DHT22;1295;51.130;6.732;2023-10-08T07:23:01;18.70;99.90
2571;DHT22;1295;51.130;6.732;2023-10-08T07:25:27;18.70;99.90
2571;DHT22;1295;51.130;6.732;2023-10-08T07:27:52;18.70;99.90
2571;DHT22;1295;51.130;6.732;2023-10-08T07:30:18;18.70;99.90
2571;DHT22;1295;51.130;6.732;2023-10-08T07:32:44;18.70;99.90
2571;DHT22;1295;51.130;6.732;2023-10-08T07:35:09;18.70;99.90
2571;DHT22;1295;51.130;6.732;2023-10-08T07:37:53;18.70;99.90
2571;DHT22;1295;51.130;6.732;2023-10-08T07:40:19;18.70;99.90
2571;DHT22;1295;51.130;6.732;2023-10-08T07:42:45;18.70;99.90
2571;DHT22;1295;51.130;6.732;2023-10-08T07:45:11;18.70;99.90
2571;DHT22;1295;51.130;6.732;2023-10-08T07:47:36;18.70;99.90
2571;DHT22;1295;51.130;6.732;2023-10-08T07:50:02;18.70;99.90
2571;DHT22;1295;51.130;6.732;2023-10-08T07:52:28;18.70;99.90
2571;DHT22;1295;51.130;6.732;2023-10-08T07:54:53;18.70;99.90
2571;DHT22;1295;51.130;6.732;2023-10-08T07:57:20;18.70;99.90
2571;DHT22;1295;51.130;6.732;2023-10-08T07:59:52;18.70;99.90
2571;DHT22;1295;51.130;6.732;2023-10-08T08:02:21;18.70;99.90
2571;DHT22;1295;51.130;6.732;2023-10-08T08:04:49;18.70;99.90
2571;DHT22;1295;51.130;6.732;2023-10-08T08:07:12;18.70;99.90
2571;DHT22;1295;51.130;6.732;2023-10-08T08:09:38;18.70;99.90
2571;DHT22;1295;51.130;6.732;2023-10-08T08:12:05;18.70;99.90
2571;DHT22;1295;51.130;6.732;2023-10-08T08:14:30;18.70;99.90
2571;DHT22;1295;51.130;6.732;2023-10-08T08:16:57;18.70;99.90
2571;DHT22;1295;51.130;6.732;2023-10-08T08:19:22;18.70;99.90
2571;DHT22;1295;51.130;6.732;2023-10-08T08:21:48;18.60;99.90
2571;DHT22;1295;51.130;6.732;2023-10-08T08:24:14;18.60;99.90
2571;DHT22;1295;51.130;6.732;2023-10-08T08:26:39;18.70;99.90
2571;DHT22;1295;51.130;6.732;2023-10-08T08:29:05;18.60;99.90
2571;DHT22;1295;51.130;6.732;2023-10-08T08:31:31;18.60;99.90
2571;DHT22;1295;51.130;6.732;2023-10-08T08:33:58;18.70;99.90
2571;DHT22;1295;51.130;6.732;2023-10-08T08:36:23;18.60;99.90
2571;DHT22;1295;51.130;6.732;2023-10-08T08:38:49;18.60;99.90
2571;DHT22;1295;51.130;6.732;2023-10-08T08:41:14;18.60;99.90
2571;DHT22;1295;51.130;6.732;2023-10-08T08:43:41;18.70;99.90
2571;DHT22;1295;51.130;6.732;2023-10-08T08:46:06;18.70;99.90
2571;DHT22;1295;51.130;6.732;2023-10-08T08:48:33;18.60;99.90
2571;DHT22;1295;51.130;6.732;2023-10-08T08:50:58;18.60;99.90
2571;DHT22;1295;51.130;6.732;2023-10-08T08:53:24;18.60;99.90
2571;DHT22;1295;51.130;6.732;2023-10-08T08:55:50;18.60;99.90
2571;DHT22;1295;51.130;6.732;2023-10-08T08:58:15;18.60;99.90
2571;DHT22;1295;51.130;6.732;2023-10-08T09:00:41;18.70;99.90
2571;DHT22;1295;51.130;6.732;2023-10-08T09:03:06;18.70;99.90
2571;DHT22;1295;51.130;6.732;2023-10-08T09:05:33;18.80;99.90
2571;DHT22;1295;51.130;6.732;2023-10-08T09:08:01;18.80;99.90
2571;DHT22;1295;51.130;6.732;2023-10-08T09:10:26;18.80;99.90
2571;DHT22;1295;51.130;6.732;2023-10-08T09:12:56;18.80;99.90
2571;DHT22;1295;51.130;6.732;2023-10-08T09:15:21;18.70;99.90
2571;DHT22;1295;51.130;6.732;2023-10-08T09:17:47;18.80;99.90
2571;DHT22;1295;51.130;6.732;2023-10-08T09:20:13;18.90;99.90
2571;DHT22;1295;51.130;6.732;2023-10-08T09:22:38;18.90;99.90
2571;DHT22;1295;51.130;6.732;2023-10-08T09:25:04;18.80;99.90
2571;DHT22;1295;51.130;6.732;2023-10-08T09:27:30;18.90;99.90
2571;DHT22;1295;51.130;6.732;2023-10-08T09:29:57;18.90;99.90
2571;DHT22;1295;51.130;6.732;2023-10-08T09:32:22;18.90;99.90
2571;DHT22;1295;51.130;6.732;2023-10-08T09:34:49;18.80;99.90
2571;DHT22;1295;51.130;6.732;2023-10-08T09:37:15;18.80;99.90
2571;DHT22;1295;51.130;6.732;2023-10-08T09:39:40;18.80;99.90
2571;DHT22;1295;51.130;6.732;2023-10-08T09:42:06;18.90;99.90
2571;DHT22;1295;51.130;6.732;2023-10-08T09:44:32;18.90;99.90
2571;DHT22;1295;51.130;6.732;2023-10-08T09:47:02;18.80;99.90
2571;DHT22;1295;51.130;6.732;2023-10-08T09:49:29;18.90;99.90
2571;DHT22;1295;51.130;6.732;2023-10-08T09:51:53;18.80;99.90
2571;DHT22;1295;51.130;6.732;2023-10-08T09:54:23;18.90;99.90
2571;DHT22;1295;51.130;6.732;2023-10-08T09:56:47;18.80;99.90
2571;DHT22;1295;51.130;6.732;2023-10-08T09:59:12;18.80;99.90
2571;DHT22;1295;51.130;6.732;2023-10-08T10:01:38;18.80;99.90
2571;DHT22;1295;51.130;6.732;2023-10-08T10:04:08;18.80;99.90
2571;DHT22;1295;51.130;6.732;2023-10-08T10:06:31;18.80;99.90
2571;DHT22;1295;51.130;6.732;2023-10-08T10:08:57;18.90;99.90
2571;DHT22;1295;51.130;6.732;2023-10-08T10:11:26;18.80;99.90
2571;DHT22;1295;51.130;6.732;2023-10-08T10:13:52;18.90;99.90
2571;DHT22;1295;51.130;6.732;2023-10-08T10:16:17;18.90;99.90
2571;DHT22;1295;51.130;6.732;2023-10-08T10:18:44;19.00;99.90
2571;DHT22;1295;51.130;6.732;2023-10-08T10:21:25;19.00;99.90
2571;DHT22;1295;51.130;6.732;2023-10-08T10:23:50;19.00;99.90
2571;DHT22;1295;51.130;6.732;2023-10-08T10:26:29;19.10;99.90
2571;DHT22;1295;51.130;6.732;2023-10-08T10:31:32;19.20;99.90
2571;DHT22;1295;51.130;6.732;2023-10-08T10:33:58;19.10;99.90
2571;DHT22;1295;51.130;6.732;2023-10-08T10:36:23;19.10;99.90
2571;DHT22;1295;51.130;6.732;2023-10-08T10:38:49;19.10;99.90
2571;DHT22;1295;51.130;6.732;2023-10-08T10:41:15;19.10;99.90
2571;DHT22;1295;51.130;6.732;2023-10-08T10:43:43;19.10;99.90
2571;DHT22;1295;51.130;6.732;2023-10-08T10:46:07;19.20;99.90
2571;DHT22;1295;51.130;6.732;2023-10-08T10:48:37;19.10;99.90
2571;DHT22;1295;51.130;6.732;2023-10-08T10:51:03;19.20;99.90
2571;DHT22;1295;51.130;6.732;2023-10-08T10:53:38;19.10;99.90
2571;DHT22;1295;51.130;6.732;2023-10-08T10:56:09;19.10;99.90
2571;DHT22;1295;51.130;6.732;2023-10-08T10:58:36;19.30;99.90
2571;DHT22;1295;51.130;6.732;2023-10-08T11:01:05;19.30;99.90
2571;DHT22;1295;51.130;6.732;2023-10-08T11:03:38;19.30;99.90
2571;DHT22;1295;51.130;6.732;2023-10-08T11:06:09;19.40;99.90
2571;DHT22;1295;51.130;6.732;2023-10-08T11:08:35;19.50;99.90
2571;DHT22;1295;51.130;6.732;2023-10-08T11:11:02;19.60;99.90
2571;DHT22;1295;51.130;6.732;2023-10-08T11:13:28;19.50;99.90
2571;DHT22;1295;51.130;6.732;2023-10-08T11:15:54;19.50;99.90
2571;DHT22;1295;51.130;6.732;2023-10-08T11:18:20;19.50;99.90
2571;DHT22;1295;51.130;6.732;2023-10-08T11:20:46;19.50;99.90
2571;DHT22;1295;51.130;6.732;2023-10-08T11:23:11;19.40;99.90
2571;DHT22;1295;51.130;6.732;2023-10-08T11:25:51;19.40;99.90
2571;DHT22;1295;51.130;6.732;2023-10-08T11:28:08;19.40;99.90
2571;DHT22;1295;51.130;6.732;2023-10-08T11:30:33;19.40;99.90
2571;DHT22;1295;51.130;6.732;2023-10-08T11:33:04;19.30;99.90
2571;DHT22;1295;51.130;6.732;2023-10-08T11:35:30;19.40;99.90
2571;DHT22;1295;51.130;6.732;2023-10-08T11:37:58;19.40;99.90
2571;DHT22;1295;51.130;6.732;2023-10-08T11:40:23;19.40;99.90
2571;DHT22;1295;51.130;6.732;2023-10-08T11:42:49;19.40;99.90
2571;DHT22;1295;51.130;6.732;2023-10-08T11:45:15;19.40;99.90
2571;DHT22;1295;51.130;6.732;2023-10-08T11:47:44;19.50;99.90
2571;DHT22;1295;51.130;6.732;2023-10-08T11:50:09;19.80;99.90
2571;DHT22;1295;51.130;6.732;2023-10-08T11:52:35;19.70;99.90
2571;DHT22;1295;51.130;6.732;2023-10-08T11:55:00;19.70;99.90
2571;DHT22;1295;51.130;6.732;2023-10-08T11:57:27;19.50;99.90
2571;DHT22;1295;51.130;6.732;2023-10-08T11:59:52;19.50;99.90
2571;DHT22;1295;51.130;6.732;2023-10-08T12:02:18;19.80;99.90
2571;DHT22;1295;51.130;6.732;2023-10-08T12:04:44;19.70;99.90
2571;DHT22;1295;51.130;6.732;2023-10-08T12:07:10;19.60;99.90
2571;DHT22;1295;51.130;6.732;2023-10-08T12:09:36;19.80;99.90
2571;DHT22;1295;51.130;6.732;2023-10-08T12:12:02;19.60;99.90
2571;DHT22;1295;51.130;6.732;2023-10-08T12:14:28;19.40;99.90
2571;DHT22;1295;51.130;6.732;2023-10-08T12:16:54;19.40;99.90
2571;DHT22;1295;51.130;6.732;2023-10-08T12:19:19;19.40;99.90
2571;DHT22;1295;51.130;6.732;2023-10-08T12:21:45;19.40;99.90
2571;DHT22;1295;51.130;6.732;2023-10-08T12:24:10;19.70;99.90
2571;DHT22;1295;51.130;6.732;2023-10-08T12:26:36;19.90;99.90
2571;DHT22;1295;51.130;6.732;2023-10-08T12:29:02;19.80;99.90
2571;DHT22;1295;51.130;6.732;2023-10-08T12:31:27;19.80;99.90
2571;DHT22;1295;51.130;6.732;2023-10-08T12:33:53;19.70;99.90
2571;DHT22;1295;51.130;6.732;2023-10-08T12:36:20;19.70;99.90
2571;DHT22;1295;51.130;6.732;2023-10-08T12:38:45;19.50;99.90
2571;DHT22;1295;51.130;6.732;2023-10-08T12:41:11;19.50;99.90
2571;DHT22;1295;51.130;6.732;2023-10-08T12:43:38;19.50;99.90
2571;DHT22;1295;51.130;6.732;2023-10-08T12:46:03;19.40;99.90
2571;DHT22;1295;51.130;6.732;2023-10-08T12:48:28;19.40;99.90
2571;DHT22;1295;51.130;6.732;2023-10-08T12:50:54;19.40;99.90
2571;DHT22;1295;51.130;6.732;2023-10-08T12:53:23;19.60;99.90
2571;DHT22;1295;51.130;6.732;2023-10-08T12:55:50;19.60;99.90
2571;DHT22;1295;51.130;6.732;2023-10-08T12:58:15;19.50;99.90
2571;DHT22;1295;51.130;6.732;2023-10-08T13:00:40;19.50;99.90
2571;DHT22;1295;51.130;6.732;2023-10-08T13:03:06;19.50;99.90
2571;DHT22;1295;51.130;6.732;2023-10-08T13:05:32;19.60;99.90
2571;DHT22;1295;51.130;6.732;2023-10-08T13:07:57;19.60;99.90
2571;DHT22;1295;51.130;6.732;2023-10-08T13:10:24;19.60;99.90
2571;DHT22;1295;51.130;6.732;2023-10-08T13:12:49;19.60;99.90
2571;DHT22;1295;51.130;6.732;2023-10-08T13:15:15;19.60;99.90
2571;DHT22;1295;51.130;6.732;2023-10-08T13:17:41;19.70;99.90
2571;DHT22;1295;51.130;6.732;2023-10-08T13:20:07;19.60;99.90
2571;DHT22;1295;51.130;6.732;2023-10-08T13:22:33;19.50;99.90
2571;DHT22;1295;51.130;6.732;2023-10-08T13:24:59;19.70;99.90
2571;DHT22;1295;51.130;6.732;2023-10-08T13:27:25;19.70;99.90
2571;DHT22;1295;51.130;6.732;2023-10-08T13:29:51;19.70;99.90
2571;DHT22;1295;51.130;6.732;2023-10-08T13:32:16;19.90;99.90
2571;DHT22;1295;51.130;6.732;2023-10-08T13:34:42;19.90;99.90
2571;DHT22;1295;51.130;6.732;2023-10-08T13:37:07;19.80;99.90
2571;DHT22;1295;51.130;6.732;2023-10-08T13:39:34;19.60;99.90
2571;DHT22;1295;51.130;6.732;2023-10-08T13:41:59;19.60;99.90
2571;DHT22;1295;51.130;6.732;2023-10-08T13:44:25;19.60;99.90
2571;DHT22;1295;51.130;6.732;2023-10-08T13:46:51;19.60;99.90
2571;DHT22;1295;51.130;6.732;2023-10-08T13:49:16;19.60;99.90
2571;DHT22;1295;51.130;6.732;2023-10-08T13:51:43;19.60;99.90
2571;DHT22;1295;51.130;6.732;2023-10-08T13:54:08;19.60;99.90
2571;DHT22;1295;51.130;6.732;2023-10-08T13:56:39;19.60;99.90
2571;DHT22;1295;51.130;6.732;2023-10-08T13:59:09;19.60;99.90
2571;DHT22;1295;51.130;6.732;2023-10-08T14:01:37;19.70;99.90
2571;DHT22;1295;51.130;6.732;2023-10-08T14:04:03;20.10;99.90
2571;DHT22;1295;51.130;6.732;2023-10-08T14:06:29;20.20;99.90
2571;DHT22;1295;51.130;6.732;2023-10-08T14:08:55;20.10;99.90
2571;DHT22;1295;51.130;6.732;2023-10-08T14:11:21;20.00;99.90
2571;DHT22;1295;51.130;6.732;2023-10-08T14:13:46;19.90;99.90
2571;DHT22;1295;51.130;6.732;2023-10-08T14:16:12;19.80;99.90
2571;DHT22;1295;51.130;6.732;2023-10-08T14:18:37;19.70;99.90
2571;DHT22;1295;51.130;6.732;2023-10-08T14:21:04;19.70;99.90
2571;DHT22;1295;51.130;6.732;2023-10-08T14:23:29;19.70;99.90
2571;DHT22;1295;51.130;6.732;2023-10-08T14:25:55;20.10;99.90
2571;DHT22;1295;51.130;6.732;2023-10-08T14:28:21;20.30;99.90
2571;DHT22;1295;51.130;6.732;2023-10-08T14:30:48;20.30;99.90
2571;DHT22;1295;51.130;6.732;2023-10-08T14:33:13;20.00;99.90
2571;DHT22;1295;51.130;6.732;2023-10-08T14:35:38;20.30;99.90
2571;DHT22;1295;51.130;6.732;2023-10-08T14:38:11;20.60;99.90
2571;DHT22;1295;51.130;6.732;2023-10-08T14:40:43;20.50;99.90
2571;DHT22;1295;51.130;6.732;2023-10-08T14:43:15;20.30;99.90
2571;DHT22;1295;51.130;6.732;2023-10-08T14:45:40;20.20;99.90
2571;DHT22;1295;51.130;6.732;2023-10-08T14:48:06;19.90;99.90
2571;DHT22;1295;51.130;6.732;2023-10-08T14:50:32;19.90;99.90
2571;DHT22;1295;51.130;6.732;2023-10-08T14:52:58;19.70;99.90
2571;DHT22;1295;51.130;6.732;2023-10-08T14:55:26;19.80;99.90
2571;DHT22;1295;51.130;6.732;2023-10-08T14:57:51;19.70;99.90
2571;DHT22;1295;51.130;6.732;2023-10-08T15:00:18;19.70;99.90
2571;DHT22;1295;51.130;6.732;2023-10-08T15:02:43;19.70;99.90
2571;DHT22;1295;51.130;6.732;2023-10-08T15:05:09;19.70;99.90
2571;DHT22;1295;51.130;6.732;2023-10-08T15:07:35;19.70;99.90
2571;DHT22;1295;51.130;6.732;2023-10-08T15:10:00;19.70;99.90
2571;DHT22;1295;51.130;6.732;2023-10-08T15:12:27;19.70;99.90
2571;DHT22;1295;51.130;6.732;2023-10-08T15:14:52;19.80;99.90
2571;DHT22;1295;51.130;6.732;2023-10-08T15:17:18;19.80;99.90
2571;DHT22;1295;51.130;6.732;2023-10-08T15:19:44;19.80;99.90
2571;DHT22;1295;51.130;6.732;2023-10-08T15:22:09;19.80;99.90
2571;DHT22;1295;51.130;6.732;2023-10-08T15:24:36;19.80;99.90
2571;DHT22;1295;51.130;6.732;2023-10-08T15:27:01;19.80;99.90
2571;DHT22;1295;51.130;6.732;2023-10-08T15:29:27;19.80;99.90
2571;DHT22;1295;51.130;6.732;2023-10-08T15:31:53;19.80;99.90
2571;DHT22;1295;51.130;6.732;2023-10-08T15:34:18;19.80;99.90
2571;DHT22;1295;51.130;6.732;2023-10-08T15:36:45;19.80;99.90
2571;DHT22;1295;51.130;6.732;2023-10-08T15:39:10;19.80;99.90
2571;DHT22;1295;51.130;6.732;2023-10-08T15:41:36;19.80;99.90
2571;DHT22;1295;51.130;6.732;2023-10-08T15:44:02;19.80;99.90
2571;DHT22;1295;51.130;6.732;2023-10-08T15:46:27;19.90;99.90
2571;DHT22;1295;51.130;6.732;2023-10-08T15:48:53;19.80;99.90
2571;DHT22;1295;51.130;6.732;2023-10-08T15:51:19;19.90;99.90
2571;DHT22;1295;51.130;6.732;2023-10-08T15:53:44;19.80;99.90
2571;DHT22;1295;51.130;6.732;2023-10-08T15:56:10;19.80;99.90
2571;DHT22;1295;51.130;6.732;2023-10-08T15:58:36;19.90;99.90
2571;DHT22;1295;51.130;6.732;2023-10-08T16:01:01;19.90;99.90